Terminal Aerodrome Forecast
Issued by NWS

Home | Current Version | Previous Version | Text Only | Print | Product List | Glossary On
Versions: 1 2 3 4 5 6 7 8 9 10 11 12
751
FTUS42 TJSJ 251739
TAFJBQ
TAF
TJBQ 251739Z 2518/2618 06012KT P6SM VCTS FEW025CB BKN040
     FM252300 09004KT P6SM SCT030 SCT070
     FM260300 00000KT P6SM SKC
     FM261450 07012KT P6SM FEW022 SCT040=

USA.gov is the U.S. government's official web portal to all federal, state and local government web resources and services.